Time;durP1;ratioP1;P1;durP2;ratioP2;P2;SDS_P1;SDS_P2;PMS_P1;PMS_P2;Temp;Humidity;BMP_temperature;BMP_pressure;BME280_temperature;BME280_humidity;BME280_pressure;Samples;Min_cycle;Max_cycle;Signal;HPM_P1;HPM_P2
2023/05/10 00:01:25;;;;;;;9.93;3.45;;;21.40;51.00;;;;;;4982480;28;20034;-75
2023/05/10 00:03:51;;;;;;;8.38;3.65;;;21.40;50.80;;;;;;4969615;28;20470;-75
2023/05/10 00:06:17;;;;;;;13.60;3.33;;;21.40;50.60;;;;;;4981868;28;20408;-75
2023/05/10 00:08:43;;;;;;;6.20;3.25;;;21.30;50.50;;;;;;4946775;28;20072;-75
2023/05/10 00:11:09;;;;;;;8.27;3.53;;;21.30;50.50;;;;;;4964215;28;21037;-75
2023/05/10 00:13:35;;;;;;;8.00;3.20;;;21.30;50.50;;;;;;4950797;28;20038;-75
2023/05/10 00:16:01;;;;;;;4.70;2.85;;;21.30;50.30;;;;;;4965244;28;20226;-75
2023/05/10 00:18:26;;;;;;;10.57;2.95;;;21.30;50.20;;;;;;4963215;28;20062;-75
2023/05/10 00:20:52;;;;;;;9.70;3.30;;;21.30;50.40;;;;;;4976863;28;20117;-75
2023/05/10 00:23:18;;;;;;;5.13;2.78;;;21.30;50.60;;;;;;4951130;28;20121;-75
2023/05/10 00:25:44;;;;;;;8.30;3.35;;;21.30;49.80;;;;;;4966927;28;20543;-76
2023/05/10 00:28:09;;;;;;;6.30;3.10;;;21.30;50.10;;;;;;4988047;28;20384;-75
2023/05/10 00:30:36;;;;;;;5.97;2.83;;;21.30;49.30;;;;;;4991950;28;20547;-75
2023/05/10 00:33:02;;;;;;;9.15;3.53;;;21.30;49.90;;;;;;4970315;28;20027;-75
2023/05/10 00:35:28;;;;;;;10.02;3.20;;;21.30;50.00;;;;;;4972755;28;20032;-75
2023/05/10 00:37:54;;;;;;;8.07;3.03;;;21.30;50.20;;;;;;4968828;28;20053;-75
2023/05/10 00:40:20;;;;;;;6.63;3.20;;;21.30;49.50;;;;;;4976224;28;20443;-74
2023/05/10 00:42:50;;;;;;;5.85;2.72;;;21.30;49.10;;;;;;4948904;28;20030;-75
2023/05/10 00:45:16;;;;;;;9.82;3.13;;;21.30;49.90;;;;;;4968198;28;20153;-76
2023/05/10 00:47:42;;;;;;;10.07;3.00;;;21.30;49.80;;;;;;4946327;28;20090;-74
2023/05/10 00:50:09;;;;;;;5.45;3.00;;;21.20;49.70;;;;;;4960736;28;20042;-75
2023/05/10 00:52:34;;;;;;;9.68;3.25;;;21.20;50.00;;;;;;4991386;28;20140;-75
2023/05/10 00:55:01;;;;;;;6.38;2.88;;;21.20;49.50;;;;;;4982466;28;20034;-74
2023/05/10 00:57:27;;;;;;;6.00;2.92;;;21.20;49.40;;;;;;4964289;28;20056;-75
2023/05/10 00:59:53;;;;;;;7.40;3.05;;;21.20;49.40;;;;;;4955116;28;20510;-75
2023/05/10 01:02:19;;;;;;;8.40;3.08;;;21.20;49.60;;;;;;4983134;28;20034;-75
2023/05/10 01:04:45;;;;;;;5.00;3.05;;;21.20;49.80;;;;;;4984788;28;20109;-75
2023/05/10 01:07:10;;;;;;;5.28;3.03;;;21.30;49.50;;;;;;4974647;28;20661;-75
2023/05/10 01:09:36;;;;;;;6.25;3.10;;;21.20;49.20;;;;;;4965487;28;21586;-74
2023/05/10 01:12:06;;;;;;;6.25;3.03;;;21.30;49.30;;;;;;4948131;28;20041;-75
2023/05/10 01:14:33;;;;;;;6.90;3.00;;;21.30;49.80;;;;;;4956713;28;21934;-75
2023/05/10 01:17:00;;;;;;;5.90;3.13;;;21.20;48.80;;;;;;4970282;28;20030;-74
2023/05/10 01:19:29;;;;;;;10.43;2.92;;;21.30;49.10;;;;;;4967703;28;20049;-74
2023/05/10 01:22:22;;;;;;;7.53;3.22;;;21.20;48.90;;;;;;4960294;28;20041;-74
2023/05/10 01:25:08;;;;;;;5.55;3.10;;;21.20;49.40;;;;;;4962290;28;20030;-74
2023/05/10 01:28:08;;;;;;;5.28;2.92;;;21.20;48.90;;;;;;4952329;28;20034;-75
2023/05/10 01:30:52;;;;;;;5.70;3.40;;;21.20;48.60;;;;;;4965889;28;20026;-75
2023/05/10 01:33:28;;;;;;;7.93;3.22;;;21.20;48.40;;;;;;4997215;28;20034;-75
2023/05/10 01:36:25;;;;;;;4.90;3.28;;;21.20;48.50;;;;;;4975191;28;20035;-74
2023/05/10 01:39:17;;;;;;;7.03;2.88;;;21.20;48.40;;;;;;4942685;28;20100;-74
2023/05/10 01:42:03;;;;;;;6.28;3.17;;;21.20;48.80;;;;;;4951160;28;20477;-74
2023/05/10 01:44:46;;;;;;;6.00;3.08;;;21.20;49.50;;;;;;4972750;28;20158;-74
2023/05/10 01:47:16;;;;;;;6.00;3.13;;;21.20;48.60;;;;;;4968208;28;20039;-74
2023/05/10 01:49:54;;;;;;;5.60;3.30;;;21.20;48.70;;;;;;4966852;28;20027;-75
2023/05/10 01:52:26;;;;;;;5.90;2.97;;;21.20;48.50;;;;;;4970016;28;20058;-74
2023/05/10 01:54:59;;;;;;;8.48;3.40;;;21.20;48.60;;;;;;4937295;28;20050;-74
2023/05/10 01:57:31;;;;;;;5.10;2.72;;;21.20;48.70;;;;;;4971514;28;20042;-74
2023/05/10 01:59:58;;;;;;;6.72;3.30;;;21.20;48.80;;;;;;4953257;28;20038;-76
2023/05/10 02:02:27;;;;;;;5.15;3.00;;;21.20;48.70;;;;;;4962867;28;20033;-76
2023/05/10 02:04:55;;;;;;;7.05;2.95;;;21.20;49.70;;;;;;4988701;28;20029;-76
2023/05/10 02:07:23;;;;;;;5.18;3.33;;;21.20;49.50;;;;;;4966353;28;20041;-75
2023/05/10 02:09:50;;;;;;;5.97;3.05;;;21.20;49.00;;;;;;4966649;28;20492;-75
2023/05/10 02:12:17;;;;;;;7.03;3.28;;;21.20;48.90;;;;;;4952945;28;20047;-75
2023/05/10 02:14:44;;;;;;;6.20;2.88;;;21.20;48.30;;;;;;4949888;28;20038;-74
2023/05/10 02:17:11;;;;;;;4.88;2.83;;;21.20;48.50;;;;;;4948922;28;20102;-75
2023/05/10 02:19:40;;;;;;;6.70;3.30;;;21.20;48.80;;;;;;4955023;28;20034;-74
2023/05/10 02:22:08;;;;;;;5.30;3.17;;;21.20;48.70;;;;;;4970215;28;20483;-74
2023/05/10 02:24:35;;;;;;;6.20;3.03;;;21.20;48.90;;;;;;4952275;28;20132;-74
2023/05/10 02:27:03;;;;;;;5.88;3.15;;;21.20;48.60;;;;;;4965379;28;20038;-75
2023/05/10 02:29:31;;;;;;;4.65;2.67;;;21.20;48.40;;;;;;4948132;28;20031;-74
2023/05/10 02:31:58;;;;;;;9.68;3.10;;;21.10;48.80;;;;;;4971524;28;20109;-74
2023/05/10 02:34:28;;;;;;;6.63;3.05;;;21.20;48.60;;;;;;4987895;28;20035;-74
2023/05/10 02:36:56;;;;;;;7.63;2.72;;;21.20;48.80;;;;;;4954728;28;20121;-75
2023/05/10 02:39:24;;;;;;;6.22;3.03;;;21.10;48.60;;;;;;4973770;28;20044;-74
2023/05/10 02:41:51;;;;;;;4.53;3.10;;;21.10;49.20;;;;;;4922156;28;20034;-75
2023/05/10 02:44:22;;;;;;;6.15;2.85;;;21.20;48.70;;;;;;4964319;28;20297;-75
2023/05/10 02:46:48;;;;;;;5.57;3.10;;;21.20;49.20;;;;;;4978267;28;20029;-75
2023/05/10 02:49:15;;;;;;;7.57;3.22;;;21.10;49.00;;;;;;4949649;28;20027;-75
2023/05/10 02:51:47;;;;;;;5.30;3.10;;;21.20;49.00;;;;;;4938106;28;20031;-75
2023/05/10 02:54:18;;;;;;;5.00;2.85;;;21.10;48.70;;;;;;4947652;28;20034;-75
2023/05/10 02:56:50;;;;;;;5.47;3.03;;;21.10;49.20;;;;;;4959176;28;20037;-75
2023/05/10 02:59:16;;;;;;;4.60;2.60;;;21.10;49.10;;;;;;4967622;28;20066;-75
2023/05/10 03:01:42;;;;;;;6.82;3.45;;;21.10;49.00;;;;;;4990739;28;20075;-75
2023/05/10 03:04:08;;;;;;;6.60;3.08;;;21.20;49.10;;;;;;4993070;28;20035;-75
2023/05/10 03:06:34;;;;;;;9.85;3.03;;;21.20;48.70;;;;;;4953636;28;20242;-75
2023/05/10 03:09:03;;;;;;;5.05;3.50;;;21.20;48.80;;;;;;4950355;28;20373;-75
2023/05/10 03:11:41;;;;;;;5.50;3.00;;;21.20;49.20;;;;;;4953008;28;20117;-75
2023/05/10 03:14:23;;;;;;;4.68;3.20;;;21.10;48.80;;;;;;4949713;28;20070;-74
2023/05/10 03:17:07;;;;;;;5.15;3.35;;;21.20;49.30;;;;;;4965835;28;20581;-75
2023/05/10 03:19:50;;;;;;;5.55;3.40;;;21.10;48.90;;;;;;4953080;28;20041;-74
2023/05/10 03:22:25;;;;;;;6.93;3.05;;;21.10;48.80;;;;;;4936828;28;20057;-74
2023/05/10 03:24:55;;;;;;;5.65;3.10;;;21.10;48.50;;;;;;4948736;28;20315;-74
2023/05/10 03:27:23;;;;;;;5.20;3.10;;;21.10;48.90;;;;;;4965044;28;20026;-75
2023/05/10 03:29:51;;;;;;;5.88;3.42;;;21.10;49.00;;;;;;4965783;28;20102;-74
2023/05/10 03:32:17;;;;;;;8.05;2.85;;;21.10;49.00;;;;;;4953619;28;20049;-74
2023/05/10 03:34:43;;;;;;;6.82;3.00;;;21.10;49.00;;;;;;4949311;28;20181;-74
2023/05/10 03:37:09;;;;;;;3.95;2.75;;;21.10;49.20;;;;;;4950606;28;20034;-75
2023/05/10 03:39:35;;;;;;;5.22;3.10;;;21.10;49.00;;;;;;4949015;28;20038;-74
2023/05/10 03:42:02;;;;;;;5.72;3.00;;;21.10;49.20;;;;;;4949575;28;20126;-75
2023/05/10 03:44:29;;;;;;;5.60;2.95;;;21.10;49.20;;;;;;4948687;28;20097;-74
2023/05/10 03:46:56;;;;;;;4.13;2.80;;;21.10;49.30;;;;;;4951907;28;20570;-74
2023/05/10 03:49:23;;;;;;;5.70;3.20;;;21.10;49.50;;;;;;4950986;28;20491;-74
2023/05/10 03:51:48;;;;;;;4.80;3.15;;;21.10;49.30;;;;;;4968352;28;20029;-74
2023/05/10 03:54:15;;;;;;;5.68;3.00;;;21.10;49.30;;;;;;4988417;28;20090;-74
2023/05/10 03:56:41;;;;;;;5.35;3.00;;;21.10;50.00;;;;;;4972532;28;20034;-75
2023/05/10 03:59:08;;;;;;;6.80;3.00;;;21.10;49.60;;;;;;4963166;28;20117;-74
2023/05/10 04:01:34;;;;;;;5.82;2.90;;;21.10;49.90;;;;;;4947136;28;20441;-74
2023/05/10 04:04:00;;;;;;;8.02;2.97;;;21.10;50.00;;;;;;4947211;28;20041;-74
2023/05/10 04:06:26;;;;;;;17.13;3.33;;;21.10;51.00;;;;;;4966557;28;20030;-75
2023/05/10 04:08:53;;;;;;;5.40;3.20;;;21.20;50.40;;;;;;4964599;28;20392;-75
2023/05/10 04:11:21;;;;;;;5.72;3.03;;;21.20;50.50;;;;;;4950652;28;20030;-75
2023/05/10 04:13:47;;;;;;;5.53;3.00;;;21.20;50.90;;;;;;4964809;28;20141;-74
2023/05/10 04:16:13;;;;;;;6.57;3.15;;;21.20;50.40;;;;;;4964782;28;20042;-74
2023/05/10 04:18:39;;;;;;;5.50;2.72;;;21.20;51.00;;;;;;4950405;28;20030;-74
2023/05/10 04:21:14;;;;;;;5.05;2.83;;;21.20;51.10;;;;;;4970893;28;20022;-74
2023/05/10 04:23:40;;;;;;;7.03;3.38;;;21.20;51.40;;;;;;4992146;28;20030;-73
2023/05/10 04:26:06;;;;;;;7.50;3.08;;;21.20;51.50;;;;;;4975556;28;20598;-74
2023/05/10 04:28:32;;;;;;;7.40;3.20;;;21.20;51.70;;;;;;4965685;28;20038;-75
2023/05/10 04:31:06;;;;;;;10.50;3.28;;;21.20;51.90;;;;;;4946584;28;20060;-76
2023/05/10 04:33:33;;;;;;;12.13;3.05;;;21.20;52.00;;;;;;4969580;28;20500;-74
2023/05/10 04:35:58;;;;;;;14.18;3.00;;;21.20;51.80;;;;;;4945721;28;20034;-74
2023/05/10 04:38:24;;;;;;;5.20;2.90;;;21.20;51.20;;;;;;4947252;28;20557;-74
2023/05/10 04:40:50;;;;;;;7.38;2.88;;;21.20;51.60;;;;;;4965036;28;20077;-74
2023/05/10 04:43:16;;;;;;;7.80;3.38;;;21.20;51.30;;;;;;4966925;28;20942;-74
2023/05/10 04:45:42;;;;;;;8.00;3.05;;;21.20;51.30;;;;;;4963790;28;20117;-74
2023/05/10 04:48:08;;;;;;;9.13;2.78;;;21.20;51.30;;;;;;4965037;28;20058;-74
2023/05/10 04:50:34;;;;;;;13.13;3.58;;;21.20;51.90;;;;;;4965103;28;20821;-74
2023/05/10 04:52:59;;;;;;;8.23;3.25;;;21.20;51.60;;;;;;4994929;28;20484;-74
2023/05/10 04:55:26;;;;;;;7.38;3.38;;;21.20;51.70;;;;;;4995696;28;20069;-74
2023/05/10 04:57:52;;;;;;;5.18;3.13;;;21.20;51.60;;;;;;4968951;28;20039;-74
2023/05/10 05:00:19;;;;;;;5.28;2.97;;;21.20;51.80;;;;;;4955996;28;20555;-74
2023/05/10 05:02:45;;;;;;;4.93;3.20;;;21.20;51.60;;;;;;4968876;28;20092;-74
2023/05/10 05:05:12;;;;;;;5.95;2.80;;;21.20;51.90;;;;;;4977178;28;20503;-74
2023/05/10 05:07:38;;;;;;;5.82;2.95;;;21.20;51.90;;;;;;4950518;28;20030;-74
2023/05/10 05:10:08;;;;;;;6.90;3.00;;;21.20;51.80;;;;;;4949508;28;20070;-74
2023/05/10 05:12:34;;;;;;;;;;;21.20;51.80;;;;;;4962916;28;20126;-74
2023/05/10 05:15:00;;;;;;;8.18;3.80;;;21.20;51.50;;;;;;4939439;28;20027;-74
2023/05/10 05:17:26;;;;;;;10.57;3.40;;;21.20;51.30;;;;;;4966554;28;20038;-74
2023/05/10 05:19:52;;;;;;;8.18;3.40;;;21.20;51.50;;;;;;4967012;28;20034;-74
2023/05/10 05:22:19;;;;;;;7.45;3.28;;;21.20;51.70;;;;;;4985669;28;20089;-74
2023/05/10 05:24:45;;;;;;;9.30;3.65;;;21.20;51.80;;;;;;4994659;28;20026;-73
2023/05/10 05:27:11;;;;;;;7.88;3.22;;;21.20;51.80;;;;;;4978281;28;20027;-74
2023/05/10 05:29:37;;;;;;;6.63;3.20;;;21.20;51.70;;;;;;4970483;28;21569;-74
2023/05/10 05:32:02;;;;;;;9.10;3.67;;;21.20;52.00;;;;;;4954172;28;20132;-74
2023/05/10 05:34:28;;;;;;;7.60;3.38;;;21.20;51.60;;;;;;4974458;28;20034;-74
2023/05/10 05:36:54;;;;;;;5.50;3.08;;;21.20;52.00;;;;;;4972827;28;20034;-74
2023/05/10 05:39:20;;;;;;;9.18;3.15;;;21.20;52.00;;;;;;4947043;28;20407;-74
2023/05/10 05:41:46;;;;;;;6.75;3.50;;;21.20;51.80;;;;;;4953620;28;20294;-74
2023/05/10 05:44:12;;;;;;;11.95;3.80;;;21.20;51.90;;;;;;4949889;28;20128;-74
2023/05/10 05:46:37;;;;;;;7.32;3.38;;;21.20;51.70;;;;;;4941390;28;20030;-74
2023/05/10 05:49:03;;;;;;;9.38;3.88;;;21.20;52.10;;;;;;4952392;28;20038;-74
2023/05/10 05:51:29;;;;;;;6.65;3.30;;;21.20;51.90;;;;;;4972858;28;20046;-74
2023/05/10 05:53:55;;;;;;;6.28;3.10;;;21.20;52.10;;;;;;4987018;28;20403;-74
2023/05/10 05:56:24;;;;;;;7.28;3.28;;;21.20;52.00;;;;;;4989357;28;20403;-74
2023/05/10 05:58:52;;;;;;;6.75;3.67;;;21.20;52.20;;;;;;4968030;28;20045;-74
2023/05/10 06:01:18;;;;;;;6.03;3.17;;;21.20;51.90;;;;;;4967222;28;20029;-74
2023/05/10 06:03:44;;;;;;;7.20;3.35;;;21.20;52.20;;;;;;4965229;28;20130;-74
2023/05/10 06:06:10;;;;;;;10.98;3.60;;;21.20;52.10;;;;;;4958123;28;20412;-74
2023/05/10 06:08:35;;;;;;;7.38;3.45;;;21.20;52.30;;;;;;4968328;28;20113;-74
2023/05/10 06:11:01;;;;;;;5.90;3.58;;;21.20;52.30;;;;;;4967138;28;20488;-74
2023/05/10 06:13:32;;;;;;;5.32;3.45;;;21.20;51.00;;;;;;4966257;28;20650;-74
2023/05/10 06:15:58;;;;;;;5.13;3.10;;;21.20;52.10;;;;;;4966941;28;20033;-74
2023/05/10 06:18:25;;;;;;;7.45;2.97;;;21.20;52.50;;;;;;4966399;28;20030;-74
2023/05/10 06:20:51;;;;;;;8.27;3.47;;;21.20;52.50;;;;;;4967982;28;20042;-74
2023/05/10 06:23:17;;;;;;;5.20;2.85;;;21.20;52.60;;;;;;4979662;28;20081;-73
2023/05/10 06:25:43;;;;;;;11.55;3.88;;;21.20;52.60;;;;;;4993696;28;20027;-74
2023/05/10 06:28:09;;;;;;;6.45;3.40;;;21.20;52.70;;;;;;4982620;28;20019;-74
2023/05/10 06:30:36;;;;;;;5.80;3.15;;;21.20;53.00;;;;;;4953225;28;20396;-74
2023/05/10 06:33:02;;;;;;;7.63;3.20;;;21.20;52.70;;;;;;4974553;28;20030;-74
2023/05/10 06:35:29;;;;;;;5.30;3.15;;;21.20;53.00;;;;;;4993600;28;20022;-73
2023/05/10 06:37:55;;;;;;;6.85;3.45;;;21.30;52.90;;;;;;4987010;28;20066;-74
2023/05/10 06:40:21;;;;;;;5.82;3.47;;;21.20;53.00;;;;;;4975027;28;20377;-74
2023/05/10 06:42:47;;;;;;;6.93;3.15;;;21.20;52.90;;;;;;4966341;28;20109;-74
2023/05/10 06:45:14;;;;;;;5.65;3.40;;;21.20;52.90;;;;;;4967821;28;20033;-74
2023/05/10 06:47:41;;;;;;;5.75;3.13;;;21.30;53.10;;;;;;4969856;28;20486;-74
2023/05/10 06:50:11;;;;;;;6.15;3.22;;;21.20;53.40;;;;;;4970807;28;20494;-73
2023/05/10 06:52:37;;;;;;;10.48;3.45;;;21.30;53.30;;;;;;4985207;28;20030;-74
2023/05/10 06:55:06;;;;;;;6.75;3.20;;;21.30;53.60;;;;;;4975933;28;20125;-74
2023/05/10 06:57:32;;;;;;;6.28;3.33;;;21.30;53.70;;;;;;4992998;28;20042;-74
2023/05/10 06:59:58;;;;;;;6.25;3.50;;;21.30;53.70;;;;;;4993278;28;20033;-73
2023/05/10 07:02:24;;;;;;;5.88;3.58;;;21.30;53.90;;;;;;4993223;28;20116;-73
2023/05/10 07:04:51;;;;;;;7.15;3.30;;;21.30;53.80;;;;;;4993313;28;20512;-73
2023/05/10 07:07:17;;;;;;;12.48;3.80;;;21.30;53.90;;;;;;4991704;28;20023;-73
2023/05/10 07:09:43;;;;;;;7.75;3.70;;;21.30;53.80;;;;;;4991333;28;20030;-73
2023/05/10 07:12:09;;;;;;;10.20;3.88;;;21.30;53.90;;;;;;4991155;28;20049;-73
2023/05/10 07:14:35;;;;;;;7.55;3.35;;;21.30;53.90;;;;;;4992805;28;20038;-73
2023/05/10 07:17:01;;;;;;;8.25;3.67;;;21.30;54.10;;;;;;4992674;28;20100;-73
2023/05/10 07:19:27;;;;;;;17.83;3.80;;;21.30;53.80;;;;;;4993187;28;20382;-74
2023/05/10 07:21:52;;;;;;;9.43;3.42;;;21.30;53.90;;;;;;4975583;28;20547;-73
2023/05/10 07:24:18;;;;;;;6.70;3.40;;;21.30;53.80;;;;;;4992580;28;20105;-73
2023/05/10 07:26:44;;;;;;;7.97;3.55;;;21.30;53.80;;;;;;4992820;28;20465;-74
2023/05/10 07:29:10;;;;;;;8.00;3.40;;;21.30;53.80;;;;;;4986424;28;20030;-74
2023/05/10 07:31:41;;;;;;;7.07;3.25;;;21.30;53.70;;;;;;4969791;28;20026;-74
2023/05/10 07:34:10;;;;;;;8.52;3.53;;;21.30;53.60;;;;;;4953626;28;20048;-75
2023/05/10 07:36:36;;;;;;;7.78;3.15;;;21.40;53.40;;;;;;4953684;28;20026;-74
2023/05/10 07:39:02;;;;;;;8.20;3.47;;;21.40;53.10;;;;;;4986199;28;20042;-75
2023/05/10 07:41:28;;;;;;;8.90;3.58;;;21.40;53.20;;;;;;4979750;28;20034;-75
2023/05/10 07:43:53;;;;;;;6.65;3.13;;;21.50;53.30;;;;;;5009930;28;20125;-75
2023/05/10 07:46:19;;;;;;;6.70;3.03;;;21.40;53.20;;;;;;4994409;28;20373;-76
2023/05/10 07:48:45;;;;;;;5.50;2.92;;;21.40;53.20;;;;;;4988727;28;20041;-76
2023/05/10 07:51:11;;;;;;;11.43;3.33;;;21.50;53.50;;;;;;4990411;28;20037;-75
2023/05/10 07:53:38;;;;;;;11.90;3.50;;;21.50;53.60;;;;;;4990281;28;20025;-75
2023/05/10 07:56:20;;;;;;;9.25;3.30;;;21.50;53.30;;;;;;4989204;28;20484;-77
2023/05/10 07:58:46;;;;;;;7.38;3.05;;;21.50;53.50;;;;;;4989778;28;20034;-76
2023/05/10 08:01:12;;;;;;;10.65;3.30;;;21.50;53.60;;;;;;4990335;28;20476;-76
2023/05/10 08:03:37;;;;;;;6.68;3.17;;;21.50;53.60;;;;;;4989320;28;20639;-76
2023/05/10 08:06:03;;;;;;;9.05;3.05;;;21.50;53.60;;;;;;4990288;28;20026;-76
2023/05/10 08:08:29;;;;;;;9.90;3.35;;;21.50;53.80;;;;;;4989096;28;20064;-75
2023/05/10 08:10:55;;;;;;;11.65;3.25;;;21.50;54.00;;;;;;4989379;28;20062;-75
2023/05/10 08:13:21;;;;;;;9.13;3.50;;;21.50;53.90;;;;;;4988801;28;20019;-75
2023/05/10 08:15:47;;;;;;;8.52;3.28;;;21.50;54.40;;;;;;4989988;28;20030;-73
2023/05/10 08:18:13;;;;;;;8.90;3.08;;;21.60;54.10;;;;;;4989307;28;20045;-75
2023/05/10 08:20:39;;;;;;;15.40;3.50;;;21.60;53.80;;;;;;4989854;28;20117;-75
2023/05/10 08:23:05;;;;;;;9.10;3.80;;;21.60;54.00;;;;;;4989038;28;20062;-75
2023/05/10 08:25:31;;;;;;;13.00;3.30;;;21.60;54.00;;;;;;4989209;28;20028;-75
2023/05/10 08:27:57;;;;;;;10.90;3.22;;;21.70;54.30;;;;;;4989464;28;20054;-75
2023/05/10 08:30:23;;;;;;;6.00;3.10;;;21.70;54.10;;;;;;4989066;28;20051;-75
2023/05/10 08:32:51;;;;;;;12.88;3.83;;;21.70;54.00;;;;;;4990212;28;20528;-75
2023/05/10 08:35:17;;;;;;;34.58;6.95;;;21.70;58.30;;;;;;4971563;28;20054;-75
2023/05/10 08:37:43;;;;;;;38.67;7.30;;;21.80;71.00;;;;;;4987106;28;20065;-75
2023/05/10 08:40:11;;;;;;;38.47;7.35;;;21.80;75.30;;;;;;4989167;28;20093;-75
2023/05/10 08:42:40;;;;;;;37.25;6.63;;;21.80;74.40;;;;;;4972024;28;20476;-75
2023/05/10 08:45:08;;;;;;;30.43;5.77;;;21.80;72.90;;;;;;4989889;28;20053;-74
2023/05/10 08:47:37;;;;;;;18.17;4.63;;;21.80;69.00;;;;;;4971160;28;20109;-75
2023/05/10 08:50:03;;;;;;;17.45;4.70;;;21.80;62.80;;;;;;4988134;28;20057;-75
2023/05/10 08:52:32;;;;;;;22.75;5.40;;;21.80;61.00;;;;;;4989260;28;20034;-75
2023/05/10 08:54:58;;;;;;;15.43;4.63;;;21.80;60.50;;;;;;4989629;28;20056;-74
2023/05/10 08:57:25;;;;;;;22.95;6.03;;;21.80;60.80;;;;;;4971779;28;20062;-75
2023/05/10 08:59:50;;;;;;;17.02;4.80;;;21.80;61.30;;;;;;4971853;28;20034;-75
2023/05/10 09:02:18;;;;;;;14.35;4.88;;;21.70;61.10;;;;;;4989051;28;20033;-74
2023/05/10 09:04:44;;;;;;;15.80;4.35;;;21.80;60.40;;;;;;4988074;28;20023;-75
2023/05/10 09:07:10;;;;;;;16.25;4.43;;;21.80;60.40;;;;;;4989129;28;20037;-73
2023/05/10 09:09:37;;;;;;;11.98;4.10;;;21.80;60.10;;;;;;4986585;28;20026;-79
2023/05/10 09:12:03;;;;;;;21.50;4.57;;;21.80;59.80;;;;;;4987250;28;20323;-80
2023/05/10 09:14:30;;;;;;;15.90;4.22;;;21.80;60.40;;;;;;4966281;28;20037;-79
2023/05/10 09:16:56;;;;;;;15.93;4.22;;;21.80;59.70;;;;;;4986765;28;20030;-77
2023/05/10 09:19:22;;;;;;;15.23;4.20;;;21.80;59.80;;;;;;4988344;28;20054;-79
2023/05/10 09:21:49;;;;;;;10.38;3.85;;;21.80;60.00;;;;;;4989066;28;20066;-79
2023/05/10 09:24:15;;;;;;;19.50;4.00;;;21.80;59.60;;;;;;4989174;28;20053;-78
2023/05/10 09:26:51;;;;;;;21.65;5.25;;;21.80;59.80;;;;;;4989428;28;20058;-78
2023/05/10 09:29:17;;;;;;;13.23;3.80;;;21.80;60.40;;;;;;4988433;28;20085;-77
2023/05/10 09:31:54;;;;;;;9.25;3.90;;;21.80;59.70;;;;;;4989047;28;20030;-76
2023/05/10 09:34:28;;;;;;;14.60;4.05;;;21.80;58.50;;;;;;4985677;28;20357;-73
2023/05/10 09:36:56;;;;;;;14.43;4.38;;;21.80;58.20;;;;;;4987204;28;20037;-73
2023/05/10 09:39:38;;;;;;;12.38;4.32;;;21.80;58.10;;;;;;4992655;28;20034;-75
2023/05/10 09:42:10;;;;;;;17.02;4.47;;;21.80;58.30;;;;;;4992524;28;20172;-78
2023/05/10 09:44:37;;;;;;;14.70;4.18;;;21.70;58.10;;;;;;4991380;28;20392;-77
2023/05/10 09:47:04;;;;;;;12.90;4.55;;;21.80;58.10;;;;;;4992325;28;20027;-76
2023/05/10 09:49:30;;;;;;;16.52;4.32;;;21.80;58.00;;;;;;4991749;28;20022;-78
2023/05/10 09:52:07;;;;;;;11.05;4.00;;;21.80;58.00;;;;;;4992522;28;20030;-75
2023/05/10 09:54:35;;;;;;;13.02;3.90;;;21.80;58.00;;;;;;4998761;23;20026;31
2023/05/10 09:57:01;;;;;;;13.52;4.07;;;21.80;58.20;;;;;;4980544;28;20057;-73
2023/05/10 09:59:28;;;;;;;16.50;3.95;;;21.80;58.20;;;;;;4986333;28;20038;-74
2023/05/10 10:01:59;;;;;;;9.68;3.75;;;21.80;58.00;;;;;;4990403;28;20034;-73
2023/05/10 10:04:25;;;;;;;11.15;4.22;;;21.80;58.00;;;;;;4974649;28;20467;-73
2023/05/10 10:07:04;;;;;;;11.63;3.97;;;21.80;57.80;;;;;;4962203;28;20110;-73
2023/05/10 10:09:31;;;;;;;14.48;4.30;;;21.80;57.60;;;;;;4958916;28;20055;-73
2023/05/10 10:11:57;;;;;;;11.32;3.80;;;21.80;57.30;;;;;;4971303;28;20113;-73
2023/05/10 10:14:26;;;;;;;14.88;3.78;;;21.80;57.10;;;;;;4971257;28;20085;-72
2023/05/10 10:16:52;;;;;;;16.55;3.88;;;21.80;56.90;;;;;;4978144;28;20038;-72
2023/05/10 10:19:20;;;;;;;11.60;3.60;;;21.80;56.80;;;;;;4971032;28;20039;-75
2023/05/10 10:21:47;;;;;;;12.27;3.60;;;21.80;56.60;;;;;;4969613;28;20035;-83
2023/05/10 10:24:13;;;;;;;10.73;3.50;;;21.80;56.30;;;;;;4945983;28;20497;-79
2023/05/10 10:26:42;;;;;;;11.32;3.28;;;21.80;55.80;;;;;;4971853;28;20054;-77
2023/05/10 10:29:26;;;;;;;11.68;3.65;;;21.80;55.10;;;;;;4971934;28;20137;-79
2023/05/10 10:32:45;;;;;;;12.68;3.50;;;21.80;54.60;;;;;;4975944;28;20054;-79
2023/05/10 10:35:11;;;;;;;9.52;3.42;;;21.80;55.00;;;;;;4955973;28;20035;-75
2023/05/10 10:37:45;;;;;;;8.77;3.47;;;21.80;54.70;;;;;;4971101;28;20042;-74
2023/05/10 10:40:30;;;;;;;11.48;3.90;;;21.80;54.00;;;;;;4965221;28;20501;-73
2023/05/10 10:42:57;;;;;;;29.33;4.68;;;21.80;54.20;;;;;;4969798;28;20035;-73
2023/05/10 10:45:24;;;;;;;9.95;3.90;;;21.90;53.60;;;;;;4971020;28;20023;-73
2023/05/10 10:48:22;;;;;;;11.13;3.42;;;21.90;53.60;;;;;;4970483;28;20027;-73
2023/05/10 10:50:55;;;;;;;22.48;4.18;;;21.80;54.10;;;;;;4954607;28;20062;-73
2023/05/10 10:53:30;;;;;;;12.18;3.95;;;21.80;53.90;;;;;;4972147;28;20425;-73
2023/05/10 10:56:07;;;;;;;13.55;4.50;;;21.80;54.00;;;;;;4973781;28;20108;-73
2023/05/10 10:58:34;;;;;;;14.45;3.45;;;21.80;53.60;;;;;;4990846;28;20034;-73
2023/05/10 11:01:19;;;;;;;10.25;3.53;;;21.70;54.10;;;;;;4990124;28;20037;-72
2023/05/10 11:04:00;;;;;;;7.90;3.80;;;21.80;54.10;;;;;;4952411;29;20086;-73
2023/05/10 11:06:35;;;;;;;9.00;3.78;;;21.80;53.80;;;;;;4969861;28;20134;-73
2023/05/10 11:09:09;;;;;;;9.43;3.25;;;21.80;54.00;;;;;;4971399;28;20029;-73
2023/05/10 11:11:36;;;;;;;10.02;3.58;;;21.70;54.00;;;;;;4971602;28;20049;-73
2023/05/10 11:14:07;;;;;;;9.43;3.38;;;21.70;53.80;;;;;;4945099;28;20480;-72
2023/05/10 11:16:43;;;;;;;11.98;4.28;;;21.70;54.00;;;;;;4956477;28;20026;-74
2023/05/10 11:19:13;;;;;;;7.65;3.65;;;21.80;53.90;;;;;;4952953;28;20065;-71
2023/05/10 11:21:51;;;;;;;8.13;3.78;;;21.70;54.10;;;;;;4935896;28;20058;-72
2023/05/10 11:24:20;;;;;;;9.23;3.38;;;21.80;54.30;;;;;;4971827;28;20019;-72
2023/05/10 11:26:49;;;;;;;7.78;3.47;;;21.70;54.00;;;;;;4970367;28;20039;-73
2023/05/10 11:29:16;;;;;;;13.02;4.03;;;21.70;53.90;;;;;;4942735;28;20710;-72
2023/05/10 11:31:46;;;;;;;13.18;3.78;;;21.70;53.80;;;;;;4954029;28;20512;-72
2023/05/10 11:34:30;;;;;;;5.85;3.53;;;21.70;53.90;;;;;;4971220;28;20069;-72
2023/05/10 11:36:56;;;;;;;9.02;3.90;;;21.70;54.00;;;;;;4953162;28;20065;-72
2023/05/10 11:39:27;;;;;;;15.20;3.85;;;21.70;54.60;;;;;;4970945;28;20122;-73
2023/05/10 11:41:53;;;;;;;16.88;3.72;;;21.80;55.10;;;;;;4953834;28;20039;-73
2023/05/10 11:44:19;;;;;;;11.68;3.40;;;21.80;54.90;;;;;;4953175;28;20077;-73
2023/05/10 11:46:45;;;;;;;17.23;3.90;;;21.70;54.80;;;;;;4968771;28;20035;-72
2023/05/10 11:49:11;;;;;;;8.45;3.42;;;21.80;55.50;;;;;;4967780;28;20107;-73
2023/05/10 11:51:37;;;;;;;8.88;3.53;;;21.80;55.50;;;;;;4951300;28;20605;-72
2023/05/10 11:54:21;;;;;;;13.98;3.20;;;21.80;55.70;;;;;;4936580;28;20105;-72
2023/05/10 11:56:47;;;;;;;9.80;3.40;;;21.80;55.90;;;;;;4952399;28;20507;-73
2023/05/10 11:59:14;;;;;;;14.07;3.95;;;21.80;55.80;;;;;;4964522;28;20038;-72
2023/05/10 12:01:41;;;;;;;9.80;3.28;;;21.80;55.70;;;;;;4988814;28;20392;-72
2023/05/10 12:04:07;;;;;;;9.32;3.20;;;21.70;55.60;;;;;;4959259;28;20556;-72
2023/05/10 12:06:40;;;;;;;7.65;2.85;;;21.80;55.70;;;;;;4952291;28;20159;-72
2023/05/10 12:09:07;;;;;;;9.05;3.78;;;21.80;55.60;;;;;;4955332;28;20033;-72
2023/05/10 12:11:37;;;;;;;7.13;3.35;;;21.80;55.60;;;;;;4988634;28;20045;-73
2023/05/10 12:14:04;;;;;;;13.68;3.30;;;21.70;55.40;;;;;;4988471;28;20019;-73
2023/05/10 12:16:30;;;;;;;10.43;3.60;;;21.80;55.50;;;;;;4988666;28;20510;-73
2023/05/10 12:18:58;;;;;;;7.28;3.17;;;21.80;55.50;;;;;;4989485;28;20031;-73
2023/05/10 12:21:25;;;;;;;8.45;3.00;;;21.80;56.00;;;;;;4972681;28;20064;-73
2023/05/10 12:23:53;;;;;;;14.65;3.40;;;21.80;55.50;;;;;;4989777;28;20037;-73
2023/05/10 12:26:23;;;;;;;8.57;3.33;;;21.80;55.40;;;;;;4989920;28;20030;-72
2023/05/10 12:28:48;;;;;;;9.68;3.75;;;21.80;55.40;;;;;;4988011;28;20511;-74
2023/05/10 12:31:14;;;;;;;7.63;3.28;;;21.80;55.30;;;;;;4989958;28;20031;-72
2023/05/10 12:33:45;;;;;;;7.70;3.45;;;21.80;55.30;;;;;;4972290;28;20030;-72
2023/05/10 12:36:13;;;;;;;8.75;3.05;;;21.80;55.30;;;;;;4990001;28;20041;-72
2023/05/10 12:38:44;;;;;;;6.65;3.50;;;21.80;55.30;;;;;;4971729;28;20027;-72
2023/05/10 12:41:18;;;;;;;7.05;3.13;;;21.80;55.20;;;;;;4972369;28;20053;-73
2023/05/10 12:43:45;;;;;;;7.45;3.10;;;21.80;55.80;;;;;;4989548;28;20169;-73
2023/05/10 12:46:16;;;;;;;8.55;3.40;;;21.80;55.10;;;;;;4956455;28;20041;-72
2023/05/10 12:48:44;;;;;;;4.55;2.95;;;21.80;55.00;;;;;;4987960;28;20034;-72
2023/05/10 12:51:11;;;;;;;6.97;3.30;;;21.80;55.00;;;;;;4989805;28;20026;-72